Montebello, California
Current Conditions -  °F | °C
As of 12:47 AM on Thursday 23 Oct 2014 (Local Time) from KCQT Reporting Station
Clear Clear  
Wind Chill: 64°   Ceiling: Unl
Heat Index: 64°   Visibility: 10mi
Dew Point: 59°   Wind: 0mph
Humidity: 84%   Direction: NA
Pressure: 29.95"   Gusts: NA
Location:  34.02°N, 118.11°W
Report Text: KCQT 230747Z AUTO 00000KT 10SM CLR 18/15 A2995 RMK AO2 SLP140 T01780150 402890156
Loading
Personal Weather Stations






























Interactive Weather Map
Tropical Storm Tracking
New forecast layout! Learn more

10-Day Weather Forecast

Advertisements
Track Severe Weather on mobile